sensor_id;sensor_type;location;lat;lon;timestamp;pressure;altitude;pressure_sealevel;temperature;humidity
45621;BME280;31345;51.522;10.702;2023-03-23T00:00:22;98127.38;;;9.41;100.00
45621;BME280;31345;51.522;10.702;2023-03-23T00:02:50;98128.06;;;9.43;100.00
45621;BME280;31345;51.522;10.702;2023-03-23T00:05:18;98125.56;;;9.42;100.00
45621;BME280;31345;51.522;10.702;2023-03-23T00:07:50;98126.16;;;9.34;100.00
45621;BME280;31345;51.522;10.702;2023-03-23T00:10:26;98117.97;;;9.27;100.00
45621;BME280;31345;51.522;10.702;2023-03-23T00:13:04;98113.13;;;9.34;100.00
45621;BME280;31345;51.522;10.702;2023-03-23T00:15:38;98109.09;;;9.41;100.00
45621;BME280;31345;51.522;10.702;2023-03-23T00:18:07;98100.66;;;9.60;100.00
45621;BME280;31345;51.522;10.702;2023-03-23T00:20:40;98103.72;;;9.66;100.00
45621;BME280;31345;51.522;10.702;2023-03-23T00:23:12;98092.84;;;9.72;100.00
45621;BME280;31345;51.522;10.702;2023-03-23T00:25:51;98093.88;;;9.81;100.00
45621;BME280;31345;51.522;10.702;2023-03-23T00:28:23;98088.84;;;10.00;99.41
45621;BME280;31345;51.522;10.702;2023-03-23T00:31:00;98089.66;;;10.24;97.98
45621;BME280;31345;51.522;10.702;2023-03-23T00:33:30;98086.69;;;10.50;95.40
45621;BME280;31345;51.522;10.702;2023-03-23T00:36:05;98085.25;;;10.57;95.48
45621;BME280;31345;51.522;10.702;2023-03-23T00:38:40;98074.75;;;10.69;94.40
45621;BME280;31345;51.522;10.702;2023-03-23T00:41:15;98074.38;;;10.73;93.18
45621;BME280;31345;51.522;10.702;2023-03-23T00:43:47;98070.66;;;10.76;93.06
45621;BME280;31345;51.522;10.702;2023-03-23T00:46:16;98073.41;;;10.74;93.83
45621;BME280;31345;51.522;10.702;2023-03-23T00:48:51;98068.97;;;10.75;93.08
45621;BME280;31345;51.522;10.702;2023-03-23T00:51:25;98053.50;;;10.83;92.51
45621;BME280;31345;51.522;10.702;2023-03-23T00:53:58;98048.84;;;10.87;92.48
45621;BME280;31345;51.522;10.702;2023-03-23T00:56:25;98060.75;;;10.79;93.06
45621;BME280;31345;51.522;10.702;2023-03-23T00:58:53;98053.34;;;10.85;92.07
45621;BME280;31345;51.522;10.702;2023-03-23T01:01:27;98058.59;;;10.85;92.25
45621;BME280;31345;51.522;10.702;2023-03-23T01:04:02;98055.34;;;10.92;91.44
45621;BME280;31345;51.522;10.702;2023-03-23T01:06:37;98052.91;;;11.01;90.63
45621;BME280;31345;51.522;10.702;2023-03-23T01:09:12;98043.22;;;10.91;91.92
45621;BME280;31345;51.522;10.702;2023-03-23T01:11:46;98053.69;;;10.91;92.03
45621;BME280;31345;51.522;10.702;2023-03-23T01:14:19;98047.19;;;10.86;92.91
45621;BME280;31345;51.522;10.702;2023-03-23T01:16:51;98046.34;;;10.85;93.66
45621;BME280;31345;51.522;10.702;2023-03-23T01:19:24;98045.84;;;10.91;92.86
45621;BME280;31345;51.522;10.702;2023-03-23T01:21:52;98036.91;;;10.94;92.34
45621;BME280;31345;51.522;10.702;2023-03-23T01:24:20;98036.91;;;10.94;91.63
45621;BME280;31345;51.522;10.702;2023-03-23T01:26:47;98036.44;;;10.89;92.73
45621;BME280;31345;51.522;10.702;2023-03-23T01:29:20;98033.34;;;10.95;91.71
45621;BME280;31345;51.522;10.702;2023-03-23T01:31:56;98037.41;;;10.88;92.20
45621;BME280;31345;51.522;10.702;2023-03-23T01:34:23;98029.75;;;10.96;92.18
45621;BME280;31345;51.522;10.702;2023-03-23T01:36:56;98038.16;;;11.31;88.06
45621;BME280;31345;51.522;10.702;2023-03-23T01:39:24;98026.41;;;11.15;89.76
45621;BME280;31345;51.522;10.702;2023-03-23T01:41:57;98032.97;;;11.41;87.90
45621;BME280;31345;51.522;10.702;2023-03-23T01:47:48;98049.75;;;11.38;89.53
45621;BME280;31345;51.522;10.702;2023-03-23T01:50:23;98044.44;;;11.50;88.14
45621;BME280;31345;51.522;10.702;2023-03-23T01:52:58;98052.53;;;11.47;90.43
45621;BME280;31345;51.522;10.702;2023-03-23T01:55:32;98034.59;;;11.32;91.40
45621;BME280;31345;51.522;10.702;2023-03-23T01:58:05;98035.81;;;11.28;91.97
45621;BME280;31345;51.522;10.702;2023-03-23T02:00:39;98034.25;;;11.15;93.81
45621;BME280;31345;51.522;10.702;2023-03-23T02:03:11;98028.50;;;11.22;92.57
45621;BME280;31345;51.522;10.702;2023-03-23T02:05:41;98024.13;;;11.32;92.63
45621;BME280;31345;51.522;10.702;2023-03-23T02:08:22;98030.94;;;11.13;96.23
45621;BME280;31345;51.522;10.702;2023-03-23T02:10:50;98034.47;;;11.02;97.98
45621;BME280;31345;51.522;10.702;2023-03-23T02:13:22;98033.88;;;10.99;98.31
45621;BME280;31345;51.522;10.702;2023-03-23T02:15:57;98040.03;;;10.88;100.00
45621;BME280;31345;51.522;10.702;2023-03-23T02:18:45;98039.34;;;10.86;100.00
45621;BME280;31345;51.522;10.702;2023-03-23T02:21:59;98031.03;;;10.81;100.00
45621;BME280;31345;51.522;10.702;2023-03-23T02:24:55;98038.38;;;10.65;100.00
45621;BME280;31345;51.522;10.702;2023-03-23T02:27:49;98025.63;;;10.51;100.00
45621;BME280;31345;51.522;10.702;2023-03-23T02:30:49;98025.84;;;10.38;100.00
45621;BME280;31345;51.522;10.702;2023-03-23T02:33:36;98028.50;;;10.26;100.00
45621;BME280;31345;51.522;10.702;2023-03-23T02:36:17;98022.00;;;10.21;100.00
45621;BME280;31345;51.522;10.702;2023-03-23T02:38:52;98013.81;;;10.14;100.00
45621;BME280;31345;51.522;10.702;2023-03-23T02:41:22;98021.53;;;10.37;100.00
45621;BME280;31345;51.522;10.702;2023-03-23T02:43:51;98027.59;;;10.37;100.00
45621;BME280;31345;51.522;10.702;2023-03-23T02:46:26;98017.72;;;10.20;100.00
45621;BME280;31345;51.522;10.702;2023-03-23T02:49:02;98021.06;;;9.99;100.00
45621;BME280;31345;51.522;10.702;2023-03-23T02:51:32;98008.72;;;10.12;100.00
45621;BME280;31345;51.522;10.702;2023-03-23T02:54:05;98011.47;;;10.11;100.00
45621;BME280;31345;51.522;10.702;2023-03-23T02:56:40;98003.63;;;10.11;100.00
45621;BME280;31345;51.522;10.702;2023-03-23T02:59:16;97996.44;;;10.24;100.00
45621;BME280;31345;51.522;10.702;2023-03-23T03:02:05;97987.19;;;10.42;100.00
45621;BME280;31345;51.522;10.702;2023-03-23T03:04:36;97989.31;;;10.48;100.00
45621;BME280;31345;51.522;10.702;2023-03-23T03:07:47;97985.22;;;10.55;100.00
45621;BME280;31345;51.522;10.702;2023-03-23T03:10:25;97982.66;;;10.65;100.00
45621;BME280;31345;51.522;10.702;2023-03-23T03:12:57;97983.63;;;10.64;100.00
45621;BME280;31345;51.522;10.702;2023-03-23T03:15:31;97992.06;;;10.68;100.00
45621;BME280;31345;51.522;10.702;2023-03-23T03:18:07;97991.13;;;10.78;100.00
45621;BME280;31345;51.522;10.702;2023-03-23T03:20:43;97980.84;;;10.87;100.00
45621;BME280;31345;51.522;10.702;2023-03-23T03:23:19;97984.47;;;10.96;99.45
45621;BME280;31345;51.522;10.702;2023-03-23T03:25:55;97989.66;;;10.86;100.00
45621;BME280;31345;51.522;10.702;2023-03-23T03:28:41;97995.28;;;10.81;100.00
45621;BME280;31345;51.522;10.702;2023-03-23T03:31:09;97985.59;;;10.72;100.00
45621;BME280;31345;51.522;10.702;2023-03-23T03:33:37;97996.56;;;10.65;100.00
45621;BME280;31345;51.522;10.702;2023-03-23T03:36:16;97988.91;;;10.74;100.00
45621;BME280;31345;51.522;10.702;2023-03-23T03:38:50;97993.31;;;10.73;100.00
45621;BME280;31345;51.522;10.702;2023-03-23T03:41:24;98002.56;;;10.77;100.00
45621;BME280;31345;51.522;10.702;2023-03-23T03:43:57;98005.66;;;10.92;100.00
45621;BME280;31345;51.522;10.702;2023-03-23T03:46:30;97998.66;;;11.03;100.00
45621;BME280;31345;51.522;10.702;2023-03-23T03:48:58;98001.72;;;10.77;100.00
45621;BME280;31345;51.522;10.702;2023-03-23T03:51:29;98006.53;;;10.72;100.00
45621;BME280;31345;51.522;10.702;2023-03-23T03:53:58;98004.41;;;10.65;100.00
45621;BME280;31345;51.522;10.702;2023-03-23T03:56:31;98008.34;;;10.81;100.00
45621;BME280;31345;51.522;10.702;2023-03-23T03:59:33;98015.09;;;10.84;100.00
45621;BME280;31345;51.522;10.702;2023-03-23T04:02:29;98023.34;;;10.58;100.00
45621;BME280;31345;51.522;10.702;2023-03-23T04:05:01;98021.44;;;10.60;100.00
45621;BME280;31345;51.522;10.702;2023-03-23T04:07:38;98022.63;;;10.56;100.00
45621;BME280;31345;51.522;10.702;2023-03-23T04:10:12;98021.63;;;10.68;100.00
45621;BME280;31345;51.522;10.702;2023-03-23T04:12:43;98021.63;;;10.68;100.00
45621;BME280;31345;51.522;10.702;2023-03-23T04:15:29;98024.63;;;10.63;100.00
45621;BME280;31345;51.522;10.702;2023-03-23T04:18:01;98022.56;;;10.67;100.00
45621;BME280;31345;51.522;10.702;2023-03-23T04:20:35;98026.66;;;10.60;100.00
45621;BME280;31345;51.522;10.702;2023-03-23T04:23:05;98020.34;;;10.62;100.00
45621;BME280;31345;51.522;10.702;2023-03-23T04:25:34;98017.16;;;10.59;100.00
45621;BME280;31345;51.522;10.702;2023-03-23T04:28:13;98020.63;;;10.59;100.00
45621;BME280;31345;51.522;10.702;2023-03-23T04:30:58;98023.47;;;10.56;100.00
45621;BME280;31345;51.522;10.702;2023-03-23T04:33:27;98022.06;;;10.52;100.00
45621;BME280;31345;51.522;10.702;2023-03-23T04:36:01;98022.75;;;10.54;100.00
45621;BME280;31345;51.522;10.702;2023-03-23T04:38:37;98020.09;;;10.44;100.00
45621;BME280;31345;51.522;10.702;2023-03-23T04:41:12;98030.16;;;10.49;100.00
45621;BME280;31345;51.522;10.702;2023-03-23T04:43:51;98027.56;;;10.49;100.00
45621;BME280;31345;51.522;10.702;2023-03-23T04:46:44;98030.28;;;10.47;100.00
45621;BME280;31345;51.522;10.702;2023-03-23T04:49:16;98039.41;;;10.53;100.00
45621;BME280;31345;51.522;10.702;2023-03-23T04:51:50;98044.19;;;10.48;100.00
45621;BME280;31345;51.522;10.702;2023-03-23T04:54:45;98045.53;;;10.42;100.00
45621;BME280;31345;51.522;10.702;2023-03-23T04:57:12;98055.09;;;10.53;100.00
45621;BME280;31345;51.522;10.702;2023-03-23T04:59:52;98055.94;;;10.53;100.00
45621;BME280;31345;51.522;10.702;2023-03-23T05:02:33;98070.34;;;10.48;100.00
45621;BME280;31345;51.522;10.702;2023-03-23T05:05:01;98063.19;;;10.50;100.00
45621;BME280;31345;51.522;10.702;2023-03-23T05:07:33;98069.16;;;10.40;100.00
45621;BME280;31345;51.522;10.702;2023-03-23T05:10:10;98075.59;;;10.36;100.00
45621;BME280;31345;51.522;10.702;2023-03-23T05:12:44;98074.75;;;10.36;100.00
45621;BME280;31345;51.522;10.702;2023-03-23T05:15:17;98072.34;;;10.44;100.00
45621;BME280;31345;51.522;10.702;2023-03-23T05:17:45;98077.31;;;10.47;100.00
45621;BME280;31345;51.522;10.702;2023-03-23T05:20:23;98073.44;;;10.42;100.00
45621;BME280;31345;51.522;10.702;2023-03-23T05:22:56;98063.75;;;10.32;100.00
45621;BME280;31345;51.522;10.702;2023-03-23T05:25:36;98062.47;;;10.26;100.00
45621;BME280;31345;51.522;10.702;2023-03-23T05:28:22;98069.94;;;10.31;100.00
45621;BME280;31345;51.522;10.702;2023-03-23T05:31:01;98074.44;;;10.29;100.00
45621;BME280;31345;51.522;10.702;2023-03-23T05:33:38;98077.53;;;10.23;100.00
45621;BME280;31345;51.522;10.702;2023-03-23T05:36:06;98062.25;;;10.18;100.00
45621;BME280;31345;51.522;10.702;2023-03-23T05:38:59;98073.66;;;10.17;100.00
45621;BME280;31345;51.522;10.702;2023-03-23T05:41:46;98072.94;;;10.15;100.00
45621;BME280;31345;51.522;10.702;2023-03-23T05:44:20;98066.31;;;10.11;100.00
45621;BME280;31345;51.522;10.702;2023-03-23T05:46:56;98065.34;;;10.12;100.00
45621;BME280;31345;51.522;10.702;2023-03-23T05:49:24;98059.56;;;10.08;100.00
45621;BME280;31345;51.522;10.702;2023-03-23T05:51:58;98053.38;;;10.09;100.00
45621;BME280;31345;51.522;10.702;2023-03-23T05:54:32;98049.78;;;9.99;100.00
45621;BME280;31345;51.522;10.702;2023-03-23T05:57:02;98046.50;;;10.08;100.00
45621;BME280;31345;51.522;10.702;2023-03-23T05:59:41;98049.22;;;10.07;100.00
45621;BME280;31345;51.522;10.702;2023-03-23T06:02:19;98046.72;;;10.05;100.00
45621;BME280;31345;51.522;10.702;2023-03-23T06:04:47;98051.13;;;10.05;100.00
45621;BME280;31345;51.522;10.702;2023-03-23T06:07:28;98054.31;;;10.08;100.00
45621;BME280;31345;51.522;10.702;2023-03-23T06:10:04;98057.75;;;10.09;100.00
45621;BME280;31345;51.522;10.702;2023-03-23T06:12:43;98045.53;;;10.09;100.00
45621;BME280;31345;51.522;10.702;2023-03-23T06:15:11;98044.34;;;10.13;100.00
45621;BME280;31345;51.522;10.702;2023-03-23T06:18:12;98025.81;;;10.17;100.00
45621;BME280;31345;51.522;10.702;2023-03-23T06:20:52;98005.16;;;10.13;100.00
45621;BME280;31345;51.522;10.702;2023-03-23T06:23:46;98001.56;;;10.14;100.00
45621;BME280;31345;51.522;10.702;2023-03-23T06:26:25;98003.13;;;10.17;100.00
45621;BME280;31345;51.522;10.702;2023-03-23T06:28:58;98005.59;;;10.19;100.00
45621;BME280;31345;51.522;10.702;2023-03-23T06:31:34;98033.41;;;10.20;100.00
45621;BME280;31345;51.522;10.702;2023-03-23T06:34:02;98050.69;;;10.32;100.00
45621;BME280;31345;51.522;10.702;2023-03-23T06:36:55;98052.69;;;10.28;100.00
45621;BME280;31345;51.522;10.702;2023-03-23T06:39:39;98067.75;;;10.36;100.00
45621;BME280;31345;51.522;10.702;2023-03-23T06:42:30;98075.09;;;10.43;100.00
45621;BME280;31345;51.522;10.702;2023-03-23T06:45:24;98072.28;;;10.34;100.00
45621;BME280;31345;51.522;10.702;2023-03-23T06:48:13;98064.91;;;10.39;100.00
45621;BME280;31345;51.522;10.702;2023-03-23T06:50:42;98062.84;;;10.43;100.00
45621;BME280;31345;51.522;10.702;2023-03-23T06:53:16;98063.69;;;10.44;100.00
45621;BME280;31345;51.522;10.702;2023-03-23T06:55:51;98071.91;;;10.39;100.00
45621;BME280;31345;51.522;10.702;2023-03-23T06:58:18;98060.03;;;10.35;100.00
45621;BME280;31345;51.522;10.702;2023-03-23T07:00:57;98053.50;;;10.40;100.00
45621;BME280;31345;51.522;10.702;2023-03-23T07:03:42;98050.28;;;10.37;100.00
45621;BME280;31345;51.522;10.702;2023-03-23T07:06:17;98045.72;;;10.50;100.00
45621;BME280;31345;51.522;10.702;2023-03-23T07:08:56;98030.28;;;10.47;100.00
45621;BME280;31345;51.522;10.702;2023-03-23T07:11:27;98035.28;;;10.50;100.00
45621;BME280;31345;51.522;10.702;2023-03-23T07:13:57;98039.72;;;10.60;100.00
45621;BME280;31345;51.522;10.702;2023-03-23T07:16:31;98041.44;;;10.71;100.00
45621;BME280;31345;51.522;10.702;2023-03-23T07:19:04;98042.34;;;10.81;100.00
45621;BME280;31345;51.522;10.702;2023-03-23T07:21:36;98041.13;;;10.85;100.00
45621;BME280;31345;51.522;10.702;2023-03-23T07:24:04;98041.56;;;10.90;100.00
45621;BME280;31345;51.522;10.702;2023-03-23T07:26:48;98049.75;;;10.97;100.00
45621;BME280;31345;51.522;10.702;2023-03-23T07:29:22;98070.25;;;11.02;100.00
45621;BME280;31345;51.522;10.702;2023-03-23T07:32:05;98080.69;;;11.23;100.00
45621;BME280;31345;51.522;10.702;2023-03-23T07:34:39;98081.56;;;11.34;100.00
45621;BME280;31345;51.522;10.702;2023-03-23T07:37:21;98076.09;;;11.47;100.00
45621;BME280;31345;51.522;10.702;2023-03-23T07:39:52;98073.56;;;11.35;100.00
45621;BME280;31345;51.522;10.702;2023-03-23T07:42:25;98075.78;;;11.40;100.00
45621;BME280;31345;51.522;10.702;2023-03-23T07:44:58;98061.94;;;11.49;100.00
45621;BME280;31345;51.522;10.702;2023-03-23T07:47:32;98078.13;;;11.33;100.00
45621;BME280;31345;51.522;10.702;2023-03-23T07:50:00;98085.31;;;11.41;100.00
45621;BME280;31345;51.522;10.702;2023-03-23T07:52:39;98083.91;;;11.37;100.00
45621;BME280;31345;51.522;10.702;2023-03-23T07:55:13;98079.16;;;11.52;100.00
45621;BME280;31345;51.522;10.702;2023-03-23T07:58:08;98077.28;;;11.74;100.00
45621;BME280;31345;51.522;10.702;2023-03-23T08:00:41;98078.69;;;11.78;100.00
45621;BME280;31345;51.522;10.702;2023-03-23T08:03:11;98070.78;;;11.68;100.00
45621;BME280;31345;51.522;10.702;2023-03-23T08:05:57;98080.47;;;11.67;100.00
45621;BME280;31345;51.522;10.702;2023-03-23T08:08:59;98080.56;;;11.56;100.00
45621;BME280;31345;51.522;10.702;2023-03-23T08:12:04;98082.19;;;11.57;100.00
45621;BME280;31345;51.522;10.702;2023-03-23T08:14:43;98082.75;;;11.61;100.00
45621;BME280;31345;51.522;10.702;2023-03-23T08:17:48;98090.31;;;11.54;100.00
45621;BME280;31345;51.522;10.702;2023-03-23T08:20:46;98092.63;;;11.47;100.00
45621;BME280;31345;51.522;10.702;2023-03-23T08:23:42;98087.41;;;11.47;100.00
45621;BME280;31345;51.522;10.702;2023-03-23T08:26:24;98094.88;;;11.52;100.00
45621;BME280;31345;51.522;10.702;2023-03-23T08:29:17;98088.31;;;11.67;100.00
45621;BME280;31345;51.522;10.702;2023-03-23T08:32:05;98088.72;;;11.73;100.00
45621;BME280;31345;51.522;10.702;2023-03-23T08:34:58;98098.94;;;11.76;100.00
45621;BME280;31345;51.522;10.702;2023-03-23T08:37:56;98092.47;;;11.80;100.00
45621;BME280;31345;51.522;10.702;2023-03-23T08:40:57;98096.78;;;11.91;100.00
45621;BME280;31345;51.522;10.702;2023-03-23T08:43:48;98108.94;;;12.02;100.00
45621;BME280;31345;51.522;10.702;2023-03-23T08:46:49;98102.09;;;12.30;100.00
45621;BME280;31345;51.522;10.702;2023-03-23T08:49:51;98118.25;;;12.45;100.00
45621;BME280;31345;51.522;10.702;2023-03-23T08:53:04;98111.22;;;12.26;100.00
45621;BME280;31345;51.522;10.702;2023-03-23T08:56:04;98112.47;;;12.32;100.00
45621;BME280;31345;51.522;10.702;2023-03-23T08:58:41;98109.97;;;12.40;100.00
45621;BME280;31345;51.522;10.702;2023-03-23T09:01:37;98119.09;;;12.36;100.00
45621;BME280;31345;51.522;10.702;2023-03-23T09:04:25;98104.16;;;12.37;100.00
45621;BME280;31345;51.522;10.702;2023-03-23T09:07:22;98110.94;;;12.49;100.00
45621;BME280;31345;51.522;10.702;2023-03-23T09:09:51;98095.91;;;12.41;100.00
45621;BME280;31345;51.522;10.702;2023-03-23T09:12:19;98096.03;;;12.50;100.00
45621;BME280;31345;51.522;10.702;2023-03-23T09:14:51;98095.38;;;12.57;100.00
45621;BME280;31345;51.522;10.702;2023-03-23T09:17:24;98093.13;;;12.63;100.00
45621;BME280;31345;51.522;10.702;2023-03-23T09:19:57;98091.31;;;12.73;100.00
45621;BME280;31345;51.522;10.702;2023-03-23T09:22:30;98096.03;;;12.79;100.00
45621;BME280;31345;51.522;10.702;2023-03-23T09:24:59;98092.28;;;12.82;100.00
45621;BME280;31345;51.522;10.702;2023-03-23T09:27:33;98087.03;;;12.82;100.00
45621;BME280;31345;51.522;10.702;2023-03-23T09:30:03;98086.50;;;12.88;100.00
45621;BME280;31345;51.522;10.702;2023-03-23T09:32:33;98081.53;;;12.85;100.00
45621;BME280;31345;51.522;10.702;2023-03-23T09:35:07;98089.50;;;12.93;99.79
45621;BME280;31345;51.522;10.702;2023-03-23T09:37:43;98094.00;;;13.11;98.84
45621;BME280;31345;51.522;10.702;2023-03-23T09:40:22;98098.31;;;13.12;99.58
45621;BME280;31345;51.522;10.702;2023-03-23T09:43:12;98100.81;;;13.14;98.32
45621;BME280;31345;51.522;10.702;2023-03-23T09:45:53;98086.56;;;13.16;98.64
45621;BME280;31345;51.522;10.702;2023-03-23T09:48:36;98084.00;;;13.34;98.03
45621;BME280;31345;51.522;10.702;2023-03-23T09:51:20;98079.94;;;13.60;96.35
45621;BME280;31345;51.522;10.702;2023-03-23T09:53:52;98079.28;;;13.76;95.96
45621;BME280;31345;51.522;10.702;2023-03-23T09:56:29;98077.00;;;13.63;95.09
45621;BME280;31345;51.522;10.702;2023-03-23T09:59:00;98081.63;;;13.79;93.84
45621;BME280;31345;51.522;10.702;2023-03-23T10:01:31;98092.59;;;13.93;95.04
45621;BME280;31345;51.522;10.702;2023-03-23T10:04:11;98089.22;;;13.82;93.11
45621;BME280;31345;51.522;10.702;2023-03-23T10:06:40;98097.00;;;13.74;93.89
45621;BME280;31345;51.522;10.702;2023-03-23T10:09:15;98099.97;;;13.51;94.30
45621;BME280;31345;51.522;10.702;2023-03-23T10:11:56;98093.88;;;13.50;94.34
45621;BME280;31345;51.522;10.702;2023-03-23T10:14:41;98100.50;;;13.65;95.05
45621;BME280;31345;51.522;10.702;2023-03-23T10:17:20;98090.34;;;13.80;94.55
45621;BME280;31345;51.522;10.702;2023-03-23T10:20:01;98099.31;;;14.05;92.61
45621;BME280;31345;51.522;10.702;2023-03-23T10:22:39;98084.81;;;14.01;91.04
45621;BME280;31345;51.522;10.702;2023-03-23T10:25:16;98082.03;;;14.02;90.96
45621;BME280;31345;51.522;10.702;2023-03-23T10:28:06;98083.50;;;13.87;90.39
45621;BME280;31345;51.522;10.702;2023-03-23T10:30:43;98093.22;;;13.86;91.61
45621;BME280;31345;51.522;10.702;2023-03-23T10:33:22;98093.22;;;13.86;91.12
45621;BME280;31345;51.522;10.702;2023-03-23T10:35:54;98078.59;;;14.02;87.21
45621;BME280;31345;51.522;10.702;2023-03-23T10:38:34;98080.19;;;14.13;90.48
45621;BME280;31345;51.522;10.702;2023-03-23T10:41:10;98079.88;;;14.16;91.26
45621;BME280;31345;51.522;10.702;2023-03-23T10:43:40;98087.63;;;14.18;89.48
45621;BME280;31345;51.522;10.702;2023-03-23T10:46:21;98097.50;;;14.06;89.87
45621;BME280;31345;51.522;10.702;2023-03-23T10:48:56;98094.00;;;13.87;89.27
45621;BME280;31345;51.522;10.702;2023-03-23T10:51:33;98074.84;;;14.05;87.72
45621;BME280;31345;51.522;10.702;2023-03-23T10:54:03;98083.91;;;13.92;87.37
45621;BME280;31345;51.522;10.702;2023-03-23T10:56:36;98083.91;;;13.92;88.22
45621;BME280;31345;51.522;10.702;2023-03-23T10:59:13;98094.03;;;14.05;87.49
45621;BME280;31345;51.522;10.702;2023-03-23T11:01:50;98081.44;;;14.09;84.24
45621;BME280;31345;51.522;10.702;2023-03-23T11:04:18;98091.78;;;13.92;86.34
45621;BME280;31345;51.522;10.702;2023-03-23T11:06:53;98094.94;;;13.96;86.62
45621;BME280;31345;51.522;10.702;2023-03-23T11:09:34;98075.34;;;14.08;85.04
45621;BME280;31345;51.522;10.702;2023-03-23T11:12:16;98064.69;;;14.10;84.67
45621;BME280;31345;51.522;10.702;2023-03-23T11:14:50;98076.19;;;14.09;84.02
45621;BME280;31345;51.522;10.702;2023-03-23T11:17:25;98087.44;;;14.01;85.27
45621;BME280;31345;51.522;10.702;2023-03-23T11:20:09;98092.69;;;14.01;86.51
45621;BME280;31345;51.522;10.702;2023-03-23T11:22:42;98090.16;;;14.09;85.10
45621;BME280;31345;51.522;10.702;2023-03-23T11:25:16;98093.59;;;14.10;84.82
45621;BME280;31345;51.522;10.702;2023-03-23T11:27:49;98095.41;;;14.27;82.62
45621;BME280;31345;51.522;10.702;2023-03-23T11:30:26;98096.31;;;14.18;84.23
45621;BME280;31345;51.522;10.702;2023-03-23T11:33:01;98094.97;;;14.32;82.90
45621;BME280;31345;51.522;10.702;2023-03-23T11:35:34;98091.53;;;14.32;84.75
45621;BME280;31345;51.522;10.702;2023-03-23T11:38:15;98091.75;;;14.38;84.24
45621;BME280;31345;51.522;10.702;2023-03-23T11:40:50;98096.19;;;14.38;84.04
45621;BME280;31345;51.522;10.702;2023-03-23T11:43:25;98083.25;;;14.26;81.22
45621;BME280;31345;51.522;10.702;2023-03-23T11:46:02;98093.63;;;14.28;81.19
45621;BME280;31345;51.522;10.702;2023-03-23T11:48:41;98090.06;;;14.19;82.45
45621;BME280;31345;51.522;10.702;2023-03-23T11:51:20;98094.16;;;14.32;80.83
45621;BME280;31345;51.522;10.702;2023-03-23T11:53:56;98094.25;;;14.40;80.00
45621;BME280;31345;51.522;10.702;2023-03-23T11:56:34;98097.59;;;14.32;79.21
45621;BME280;31345;51.522;10.702;2023-03-23T11:59:10;98106.66;;;14.01;79.41
45621;BME280;31345;51.522;10.702;2023-03-23T12:01:51;98099.34;;;13.95;78.90
45621;BME280;31345;51.522;10.702;2023-03-23T12:04:53;98107.81;;;13.71;81.18
45621;BME280;31345;51.522;10.702;2023-03-23T12:07:39;98113.94;;;13.52;81.03
45621;BME280;31345;51.522;10.702;2023-03-23T12:10:25;98124.19;;;13.35;80.70
45621;BME280;31345;51.522;10.702;2023-03-23T12:13:13;98120.06;;;13.32;79.72
45621;BME280;31345;51.522;10.702;2023-03-23T12:15:53;98118.69;;;13.28;79.01
45621;BME280;31345;51.522;10.702;2023-03-23T12:18:32;98119.25;;;13.32;79.21
45621;BME280;31345;51.522;10.702;2023-03-23T12:21:12;98109.63;;;13.50;79.77
45621;BME280;31345;51.522;10.702;2023-03-23T12:23:48;98112.22;;;13.98;79.98
45621;BME280;31345;51.522;10.702;2023-03-23T12:26:28;98111.97;;;14.38;80.71
45621;BME280;31345;51.522;10.702;2023-03-23T12:29:23;98106.25;;;14.61;78.29
45621;BME280;31345;51.522;10.702;2023-03-23T12:32:23;98101.16;;;14.41;78.92
45621;BME280;31345;51.522;10.702;2023-03-23T12:35:04;98113.94;;;14.36;80.29
45621;BME280;31345;51.522;10.702;2023-03-23T12:37:43;98109.78;;;14.70;80.05
45621;BME280;31345;51.522;10.702;2023-03-23T12:40:42;98106.91;;;14.63;79.78
45621;BME280;31345;51.522;10.702;2023-03-23T12:43:26;98112.16;;;14.63;80.54
45621;BME280;31345;51.522;10.702;2023-03-23T12:46:05;98105.50;;;14.95;79.79
45621;BME280;31345;51.522;10.702;2023-03-23T12:48:41;98102.41;;;15.18;77.68
45621;BME280;31345;51.522;10.702;2023-03-23T12:51:21;98102.25;;;15.20;78.80
45621;BME280;31345;51.522;10.702;2023-03-23T12:53:56;98096.91;;;15.38;78.36
45621;BME280;31345;51.522;10.702;2023-03-23T12:56:33;98099.38;;;15.31;78.17
45621;BME280;31345;51.522;10.702;2023-03-23T12:59:09;98094.47;;;15.45;76.94
45621;BME280;31345;51.522;10.702;2023-03-23T13:01:42;98079.56;;;15.62;74.92
45621;BME280;31345;51.522;10.702;2023-03-23T13:04:13;98082.72;;;15.74;74.73
45621;BME280;31345;51.522;10.702;2023-03-23T13:06:49;98092.03;;;15.86;73.94
45621;BME280;31345;51.522;10.702;2023-03-23T13:09:29;98084.53;;;15.65;73.79
45621;BME280;31345;51.522;10.702;2023-03-23T13:12:02;98078.78;;;15.69;70.36
45621;BME280;31345;51.522;10.702;2023-03-23T13:14:40;98085.28;;;15.49;72.63
45621;BME280;31345;51.522;10.702;2023-03-23T13:17:22;98095.75;;;15.06;74.60
45621;BME280;31345;51.522;10.702;2023-03-23T13:20:21;98091.00;;;15.09;75.81
45621;BME280;31345;51.522;10.702;2023-03-23T13:23:01;98087.19;;;14.85;75.86
45621;BME280;31345;51.522;10.702;2023-03-23T13:25:55;98091.72;;;14.75;75.68
45621;BME280;31345;51.522;10.702;2023-03-23T13:28:32;98096.00;;;14.76;75.54
45621;BME280;31345;51.522;10.702;2023-03-23T13:31:13;98103.25;;;14.56;77.39
45621;BME280;31345;51.522;10.702;2023-03-23T13:33:49;98098.13;;;14.72;77.42
45621;BME280;31345;51.522;10.702;2023-03-23T13:36:25;98079.47;;;14.84;76.34
45621;BME280;31345;51.522;10.702;2023-03-23T13:38:57;98080.97;;;15.39;75.92
45621;BME280;31345;51.522;10.702;2023-03-23T13:41:31;98080.31;;;15.11;76.21
45621;BME280;31345;51.522;10.702;2023-03-23T13:44:16;98085.56;;;15.11;76.41